createdAt,value
2022-09-11T00:00:56.236Z,85.11
2022-09-11T00:04:03.813Z,84.86
2022-09-11T00:07:10.911Z,84.87
2022-09-11T00:10:17.864Z,84.82
2022-09-11T00:13:26.050Z,84.87
2022-09-11T00:16:37.391Z,84.56
2022-09-11T00:19:44.226Z,84.90
2022-09-11T00:22:53.571Z,85.34
2022-09-11T00:26:06.889Z,85.90
2022-09-11T00:29:13.220Z,86.56
2022-09-11T00:32:22.845Z,86.96
2022-09-11T00:35:29.591Z,87.34
2022-09-11T00:38:38.782Z,87.80
2022-09-11T00:41:47.071Z,88.26
2022-09-11T00:45:04.212Z,87.94
2022-09-11T00:48:17.208Z,88.13
2022-09-11T00:51:29.194Z,88.21
2022-09-11T00:54:39.147Z,88.59
2022-09-11T00:57:49.725Z,88.59
2022-09-11T01:00:58.399Z,88.86
2022-09-11T01:04:11.876Z,89.01
2022-09-11T01:07:18.678Z,89.20
2022-09-11T01:10:34.844Z,89.07
2022-09-11T01:13:47.037Z,88.99
2022-09-11T01:16:57.807Z,88.86
2022-09-11T01:20:31.353Z,88.66
2022-09-11T01:24:09.471Z,88.52
2022-09-11T01:27:42.551Z,88.79
2022-09-11T01:30:56.800Z,88.71
2022-09-11T01:34:09.598Z,88.67
2022-09-11T01:37:25.333Z,88.22
2022-09-11T01:40:41.275Z,87.95
2022-09-11T01:43:56.949Z,87.81
2022-09-11T01:47:07.196Z,87.97
2022-09-11T01:50:15.662Z,87.53
2022-09-11T01:53:26.343Z,87.23
2022-09-11T01:56:36.763Z,87.27
2022-09-11T01:59:49.412Z,86.83
2022-09-11T02:03:03.643Z,86.70
2022-09-11T02:06:16.187Z,86.92
2022-09-11T02:09:27.613Z,86.82
2022-09-11T02:12:45.329Z,86.57
2022-09-11T02:16:08.849Z,86.45
2022-09-11T02:19:18.933Z,86.76
2022-09-11T02:22:24.902Z,86.89
2022-09-11T02:25:32.016Z,87.01
2022-09-11T02:28:38.142Z,87.29
2022-09-11T02:31:49.811Z,87.04
2022-09-11T02:34:57.979Z,87.28
2022-09-11T02:38:15.042Z,87.27
2022-09-11T02:41:31.272Z,87.39
2022-09-11T02:44:44.947Z,87.81
2022-09-11T02:48:06.972Z,87.96
2022-09-11T02:51:24.411Z,88.02
2022-09-11T02:54:36.187Z,88.01
2022-09-11T02:57:49.009Z,88.07
2022-09-11T03:00:56.688Z,88.28
2022-09-11T03:04:07.009Z,88.55
2022-09-11T03:07:13.133Z,88.98
2022-09-11T03:10:20.160Z,89.26
2022-09-11T03:13:26.204Z,89.44
2022-09-11T03:16:33.848Z,89.32
2022-09-11T03:19:42.879Z,89.34
2022-09-11T03:22:50.412Z,89.53
2022-09-11T03:25:57.974Z,89.57
2022-09-11T03:29:08.727Z,89.62
2022-09-11T03:32:16.412Z,89.75
2022-09-11T03:35:26.232Z,89.99
2022-09-11T03:38:33.240Z,90.10
2022-09-11T03:41:41.228Z,90.23
2022-09-11T03:44:47.569Z,89.96
2022-09-11T03:47:54.328Z,89.58
2022-09-11T03:51:05.950Z,89.62
2022-09-11T03:54:13.358Z,89.77
2022-09-11T03:57:19.625Z,89.83
2022-09-11T04:00:27.519Z,90.00
2022-09-11T04:03:36.286Z,90.16
2022-09-11T04:06:46.049Z,90.23
2022-09-11T04:09:52.516Z,89.91
2022-09-11T04:12:59.411Z,89.80
2022-09-11T04:16:10.536Z,90.11
2022-09-11T04:19:22.013Z,90.67
2022-09-11T04:22:30.769Z,90.83
2022-09-11T04:25:38.936Z,90.88
2022-09-11T04:28:46.879Z,90.52
2022-09-11T04:31:55.244Z,90.66
2022-09-11T04:35:08.779Z,91.06
2022-09-11T04:38:27.314Z,90.59
2022-09-11T04:41:33.371Z,90.52
2022-09-11T04:44:42.427Z,90.52
2022-09-11T04:47:48.913Z,90.09
2022-09-11T04:51:03.809Z,89.75
2022-09-11T04:54:17.047Z,89.38
2022-09-11T04:57:25.004Z,89.81
2022-09-11T05:00:31.176Z,90.34
2022-09-11T05:03:39.658Z,90.49
2022-09-11T05:06:48.538Z,91.15
2022-09-11T05:09:59.723Z,91.49
2022-09-11T05:13:06.967Z,91.25
2022-09-11T05:16:16.037Z,91.39
2022-09-11T05:19:22.551Z,91.96
2022-09-11T05:22:29.810Z,92.13
2022-09-11T05:25:40.285Z,92.03
2022-09-11T05:28:47.168Z,92.55
2022-09-11T05:31:53.450Z,92.26
2022-09-11T05:35:03.476Z,91.90
2022-09-11T05:38:11.055Z,92.42
2022-09-11T05:41:21.172Z,92.66
2022-09-11T05:44:27.636Z,91.61
2022-09-11T05:47:35.140Z,92.23
2022-09-11T05:50:41.731Z,91.46
2022-09-11T05:53:50.477Z,91.14
2022-09-11T05:56:59.373Z,91.25
2022-09-11T06:00:08.217Z,90.53
2022-09-11T06:03:17.034Z,90.30
2022-09-11T06:06:25.962Z,90.47
2022-09-11T06:09:32.806Z,90.75
2022-09-11T06:12:42.549Z,90.90
2022-09-11T06:15:49.485Z,90.66
2022-09-11T06:18:57.685Z,90.60
2022-09-11T06:22:04.349Z,90.94
2022-09-11T06:25:18.611Z,90.97
2022-09-11T06:28:27.849Z,90.53
2022-09-11T06:31:34.779Z,90.11
2022-09-11T06:34:41.080Z,89.69
2022-09-11T06:37:51.299Z,89.54
2022-09-11T06:41:00.320Z,89.79
2022-09-11T06:44:15.508Z,90.40
2022-09-11T06:47:21.519Z,98.27
2022-09-11T06:50:28.460Z,98.66
2022-09-11T06:53:42.796Z,95.22
2022-09-11T06:56:52.034Z,93.41
2022-09-11T07:00:01.036Z,93.95
2022-09-11T07:03:17.097Z,94.89
2022-09-11T07:06:24.869Z,95.70
2022-09-11T07:09:32.153Z,96.13
2022-09-11T07:12:39.073Z,96.54
2022-09-11T07:15:49.968Z,96.90
2022-09-11T07:18:56.616Z,97.05
2022-09-11T07:22:03.702Z,97.43
2022-09-11T07:25:11.458Z,97.22
2022-09-11T07:28:21.507Z,97.49
2022-09-11T07:31:34.711Z,97.25
2022-09-11T07:34:41.685Z,97.50
2022-09-11T07:37:50.933Z,97.25
2022-09-11T07:41:00.330Z,97.43
2022-09-11T07:44:08.248Z,97.31
2022-09-11T07:47:18.104Z,97.76
2022-09-11T07:50:28.119Z,97.67
2022-09-11T07:53:38.230Z,97.04
2022-09-11T07:56:44.431Z,97.41
2022-09-11T07:59:52.401Z,97.67
2022-09-11T08:03:04.151Z,96.50
2022-09-11T08:06:21.919Z,96.50
2022-09-11T08:09:31.482Z,96.31
2022-09-11T08:12:40.482Z,96.17
2022-09-11T08:15:50.587Z,95.62
2022-09-11T08:19:03.891Z,95.01
2022-09-11T08:22:10.473Z,94.82
2022-09-11T08:25:24.176Z,94.47
2022-09-11T08:28:30.465Z,94.81
2022-09-11T08:31:38.098Z,95.12
2022-09-11T08:34:49.797Z,93.15
2022-09-11T08:37:57.353Z,93.45
2022-09-11T08:41:15.367Z,91.67
2022-09-11T08:44:27.268Z,91.43
2022-09-11T08:47:43.228Z,90.78
2022-09-11T08:50:52.721Z,90.43
2022-09-11T08:53:59.262Z,90.10
2022-09-11T08:57:20.054Z,90.23
2022-09-11T09:00:30.413Z,89.57
2022-09-11T09:04:06.873Z,90.29
2022-09-11T09:07:27.959Z,89.55
2022-09-11T09:10:50.419Z,90.04
2022-09-11T09:14:32.756Z,89.43
2022-09-11T09:17:45.661Z,90.18
2022-09-11T09:21:03.553Z,88.68
2022-09-11T09:24:22.374Z,88.62
2022-09-11T09:27:40.093Z,87.24
2022-09-11T09:30:53.972Z,87.37
2022-09-11T09:34:04.522Z,87.24
2022-09-11T09:37:19.617Z,87.19
2022-09-11T09:40:31.272Z,87.92
2022-09-11T09:43:49.928Z,88.14
2022-09-11T09:46:59.676Z,88.69
2022-09-11T09:50:08.537Z,87.79
2022-09-11T09:53:21.664Z,88.04
2022-09-11T09:56:35.425Z,87.23
2022-09-11T09:59:46.768Z,86.39
2022-09-11T10:02:56.993Z,84.99
2022-09-11T10:06:03.535Z,84.31
2022-09-11T10:09:21.964Z,82.27
2022-09-11T10:12:31.915Z,83.02
2022-09-11T10:15:43.352Z,82.69
2022-09-11T10:18:49.896Z,82.09
2022-09-11T10:21:57.669Z,82.09
2022-09-11T10:25:15.707Z,81.92
2022-09-11T10:28:32.671Z,81.57
2022-09-11T10:31:42.152Z,81.75
2022-09-11T10:34:49.020Z,81.72
2022-09-11T10:38:13.924Z,79.09
2022-09-11T10:41:24.200Z,79.00
2022-09-11T10:44:33.193Z,79.31
2022-09-11T10:47:40.605Z,78.74
2022-09-11T10:50:46.583Z,79.29
2022-09-11T10:54:14.193Z,78.99
2022-09-11T10:57:25.529Z,77.80
2022-09-11T11:00:36.413Z,78.38
2022-09-11T11:03:42.241Z,78.52
2022-09-11T11:07:07.034Z,77.74
2022-09-11T11:10:26.177Z,75.91
2022-09-11T11:13:51.828Z,74.57
2022-09-11T11:17:16.664Z,75.43
2022-09-11T11:20:34.523Z,74.59
2022-09-11T11:23:54.126Z,74.06
2022-09-11T11:27:17.462Z,73.97
2022-09-11T11:30:25.201Z,74.53
2022-09-11T11:33:50.697Z,75.02
2022-09-11T11:37:03.728Z,73.48
2022-09-11T11:40:18.580Z,73.17
2022-09-11T11:43:29.870Z,72.83
2022-09-11T11:46:42.254Z,73.14
2022-09-11T11:50:03.888Z,71.11
2022-09-11T11:53:21.712Z,72.10
2022-09-11T11:56:35.457Z,72.70
2022-09-11T11:59:49.937Z,71.90
2022-09-11T12:03:06.042Z,70.76
2022-09-11T12:06:15.955Z,70.97
2022-09-11T12:09:22.076Z,71.38
2022-09-11T12:12:34.106Z,71.51
2022-09-11T12:15:40.301Z,71.89
2022-09-11T12:19:07.846Z,70.55
2022-09-11T12:22:18.314Z,70.42
2022-09-11T12:26:07.313Z,69.38
2022-09-11T12:29:53.287Z,69.02
2022-09-11T12:33:04.049Z,69.13
2022-09-11T12:36:13.126Z,69.06
2022-09-11T12:39:29.687Z,69.38
2022-09-11T12:43:20.687Z,67.48
2022-09-11T12:47:16.735Z,68.09
2022-09-11T12:50:25.754Z,66.07
2022-09-11T12:53:37.274Z,65.98
2022-09-11T12:56:50.773Z,66.14
2022-09-11T13:00:04.219Z,65.56
2022-09-11T13:03:20.651Z,65.73
2022-09-11T13:06:38.995Z,65.53
2022-09-11T13:09:50.061Z,66.18
2022-09-11T13:12:59.978Z,65.93
2022-09-11T13:16:22.188Z,66.13
2022-09-11T13:19:36.026Z,65.65
2022-09-11T13:22:42.482Z,66.31
2022-09-11T13:25:52.240Z,66.27
2022-09-11T13:29:03.545Z,67.09
2022-09-11T13:32:13.418Z,65.93
2022-09-11T13:35:22.750Z,66.33
2022-09-11T13:38:35.143Z,67.07
2022-09-11T13:41:45.301Z,67.24
2022-09-11T13:44:57.793Z,67.74
2022-09-11T13:48:03.652Z,67.50
2022-09-11T13:51:15.599Z,67.19
2022-09-11T13:54:30.826Z,67.29
2022-09-11T13:57:52.954Z,67.51
2022-09-11T14:01:14.518Z,67.64
2022-09-11T14:04:21.539Z,68.05
2022-09-11T14:07:29.706Z,68.12
2022-09-11T14:10:41.737Z,67.04
2022-09-11T14:13:52.136Z,65.32
2022-09-11T14:17:03.866Z,66.03
2022-09-11T14:20:20.466Z,66.84
2022-09-11T14:23:30.694Z,67.26
2022-09-11T14:26:44.707Z,70.31
2022-09-11T14:29:56.957Z,72.20
2022-09-11T14:33:19.536Z,74.25
2022-09-11T14:36:26.446Z,76.39
2022-09-11T14:39:37.269Z,78.55
2022-09-11T14:42:46.089Z,81.24
2022-09-11T14:45:54.922Z,83.19
2022-09-11T14:49:08.398Z,85.01
2022-09-11T14:52:17.107Z,85.83
2022-09-11T14:55:24.088Z,87.09
2022-09-11T14:58:31.837Z,88.96
2022-09-11T15:01:38.751Z,90.59
2022-09-11T15:04:47.460Z,91.34
2022-09-11T15:07:54.276Z,92.07
2022-09-11T15:11:00.278Z,92.43
2022-09-11T15:14:20.705Z,92.55
2022-09-11T15:17:39.319Z,92.57
2022-09-11T15:20:49.448Z,92.42
2022-09-11T15:23:55.565Z,92.05
2022-09-11T15:27:04.080Z,91.66
2022-09-11T15:30:11.666Z,90.94
2022-09-11T15:33:18.489Z,90.53
2022-09-11T15:36:31.394Z,89.78
2022-09-11T15:39:38.621Z,88.86
2022-09-11T15:42:45.422Z,88.31
2022-09-11T15:45:53.105Z,87.98
2022-09-11T15:49:03.554Z,87.57
2022-09-11T15:52:13.576Z,87.61
2022-09-11T15:55:19.731Z,87.30
2022-09-11T15:58:27.244Z,86.87
2022-09-11T16:01:35.693Z,86.46
2022-09-11T16:04:42.631Z,86.01
2022-09-11T16:07:52.043Z,86.03
2022-09-11T16:11:03.889Z,85.98
2022-09-11T16:14:11.197Z,85.91
2022-09-11T16:17:20.963Z,85.94
2022-09-11T16:20:27.530Z,85.81
2022-09-11T16:23:39.483Z,85.69
2022-09-11T16:26:45.837Z,85.89
2022-09-11T16:30:20.625Z,86.06
2022-09-11T16:33:18.939Z,86.05
2022-09-11T16:36:25.996Z,86.14
2022-09-11T16:39:34.772Z,86.12
2022-09-11T16:42:41.463Z,86.11
2022-09-11T16:45:54.124Z,85.71
2022-09-11T16:49:01.924Z,85.77
2022-09-11T16:52:08.976Z,85.80
2022-09-11T16:55:20.258Z,85.68
2022-09-11T16:58:26.675Z,85.70
2022-09-11T17:01:33.699Z,85.74
2022-09-11T17:04:40.199Z,85.81
2022-09-11T17:07:47.766Z,85.83
2022-09-11T17:10:58.404Z,85.91
2022-09-11T17:14:08.505Z,86.09
2022-09-11T17:17:14.376Z,86.18
2022-09-11T17:20:21.206Z,86.02
2022-09-11T17:23:27.337Z,85.90
2022-09-11T17:26:37.507Z,85.56
2022-09-11T17:29:44.719Z,84.50
2022-09-11T17:32:52.074Z,84.21
2022-09-11T17:35:57.956Z,83.95
2022-09-11T17:39:07.011Z,83.66
2022-09-11T17:42:16.025Z,83.24
2022-09-11T17:45:23.353Z,82.59
2022-09-11T17:48:29.445Z,82.35
2022-09-11T17:51:36.427Z,82.40
2022-09-11T17:54:42.527Z,82.67
2022-09-11T17:57:55.212Z,82.74
2022-09-11T18:01:03.813Z,82.89
2022-09-11T18:04:10.696Z,83.08
2022-09-11T18:07:16.761Z,83.12
2022-09-11T18:10:23.828Z,83.45
2022-09-11T18:13:34.938Z,83.48
2022-09-11T18:16:44.221Z,83.65
2022-09-11T18:19:50.403Z,83.70
2022-09-11T18:22:57.151Z,83.89
2022-09-11T18:26:03.967Z,83.95
2022-09-11T18:29:15.933Z,84.10
2022-09-11T18:32:21.842Z,84.25
2022-09-11T18:35:28.710Z,84.45
2022-09-11T18:38:35.134Z,84.45
2022-09-11T18:41:42.737Z,84.42
2022-09-11T18:44:51.639Z,84.45
2022-09-11T18:48:00.092Z,84.49
2022-09-11T18:51:09.920Z,84.60
2022-09-11T18:54:18.079Z,84.54
2022-09-11T18:57:24.819Z,84.46
2022-09-11T19:00:35.027Z,84.36
2022-09-11T19:03:44.438Z,84.22
2022-09-11T19:06:51.428Z,83.98
2022-09-11T19:09:57.777Z,83.99
2022-09-11T19:13:06.633Z,83.82
2022-09-11T19:16:16.904Z,83.87
2022-09-11T19:19:24.224Z,83.70
2022-09-11T19:22:32.215Z,83.65
2022-09-11T19:25:39.267Z,83.79
2022-09-11T19:28:47.395Z,83.58
2022-09-11T19:31:56.929Z,83.54
2022-09-11T19:35:04.129Z,83.60
2022-09-11T19:38:10.954Z,83.19
2022-09-11T19:41:19.514Z,83.18
2022-09-11T19:44:26.480Z,83.21
2022-09-11T19:47:35.201Z,83.21
2022-09-11T19:50:46.404Z,83.23
2022-09-11T19:53:53.052Z,83.35
2022-09-11T19:57:00.342Z,83.52
2022-09-11T20:00:09.104Z,83.53
2022-09-11T20:03:18.963Z,83.63
2022-09-11T20:06:26.306Z,83.78
2022-09-11T20:09:33.750Z,83.99
2022-09-11T20:12:40.069Z,84.40
2022-09-11T20:15:47.280Z,84.65
2022-09-11T20:18:57.090Z,84.79
2022-09-11T20:22:04.350Z,84.89
2022-09-11T20:25:10.873Z,85.15
2022-09-11T20:28:17.730Z,85.26
2022-09-11T20:31:26.707Z,85.37
2022-09-11T20:34:36.318Z,85.58
2022-09-11T20:37:42.232Z,85.77
2022-09-11T20:40:49.202Z,85.92
2022-09-11T20:43:55.306Z,85.99
2022-09-11T20:47:03.671Z,86.14
2022-09-11T20:50:13.565Z,86.00
2022-09-11T20:53:22.145Z,86.36
2022-09-11T20:56:28.075Z,86.35
2022-09-11T20:59:34.742Z,86.29
2022-09-11T21:02:41.005Z,86.33
2022-09-11T21:05:50.695Z,86.37
2022-09-11T21:08:57.508Z,86.32
2022-09-11T21:12:04.151Z,86.42
2022-09-11T21:15:11.064Z,86.38
2022-09-11T21:18:18.605Z,86.67
2022-09-11T21:21:28.547Z,86.67
2022-09-11T21:24:35.283Z,86.73
2022-09-11T21:27:41.565Z,86.88
2022-09-11T21:30:48.544Z,86.91
2022-09-11T21:33:54.706Z,86.94
2022-09-11T21:37:04.659Z,87.18
2022-09-11T21:40:11.697Z,87.35
2022-09-11T21:43:18.412Z,87.83
2022-09-11T21:46:24.498Z,88.02
2022-09-11T21:49:31.635Z,87.85
2022-09-11T21:52:40.628Z,88.09
2022-09-11T21:55:50.127Z,88.29
2022-09-11T21:58:56.717Z,88.45
2022-09-11T22:02:04.067Z,88.50
2022-09-11T22:05:10.662Z,88.58
2022-09-11T22:08:22.134Z,88.74
2022-09-11T22:11:28.406Z,88.98
2022-09-11T22:14:35.243Z,89.27
2022-09-11T22:17:41.525Z,89.35
2022-09-11T22:20:49.180Z,89.62
2022-09-11T22:23:58.160Z,89.76
2022-09-11T22:27:07.534Z,89.89
2022-09-11T22:30:14.399Z,90.02
2022-09-11T22:33:21.163Z,90.26
2022-09-11T22:36:28.454Z,90.41
2022-09-11T22:39:38.414Z,90.23
2022-09-11T22:42:44.388Z,90.77
2022-09-11T22:45:55.299Z,90.90
2022-09-11T22:49:04.315Z,91.05
2022-09-11T22:52:11.517Z,91.42
2022-09-11T22:55:20.604Z,91.61
2022-09-11T22:58:27.378Z,91.90
2022-09-11T23:01:33.863Z,91.97
2022-09-11T23:04:40.785Z,91.89
2022-09-11T23:07:44.153Z,91.36
2022-09-11T23:10:53.612Z,91.25
2022-09-11T23:14:00.618Z,91.21
2022-09-11T23:17:09.384Z,91.29
2022-09-11T23:20:15.971Z,91.17
2022-09-11T23:23:22.978Z,91.45
2022-09-11T23:26:33.556Z,91.43
2022-09-11T23:29:40.455Z,91.52
2022-09-11T23:32:46.369Z,91.67
2022-09-11T23:35:53.060Z,91.71
2022-09-11T23:38:59.108Z,91.39
2022-09-11T23:42:10.631Z,91.38
2022-09-11T23:45:16.896Z,91.48
2022-09-11T23:48:24.115Z,91.43
2022-09-11T23:51:30.103Z,91.32
2022-09-11T23:54:37.053Z,91.04
2022-09-11T23:57:45.790Z,91.13
